sensor_id;sensor_type;location;lat;lon;timestamp;temperature;humidity
26408;DHT22;14583;43.604;1.364;2023-04-01T00:00:06;12.30;99.90
26408;DHT22;14583;43.604;1.364;2023-04-01T00:02:32;12.40;99.90
26408;DHT22;14583;43.604;1.364;2023-04-01T00:04:58;12.30;99.90
26408;DHT22;14583;43.604;1.364;2023-04-01T00:07:23;12.30;99.90
26408;DHT22;14583;43.604;1.364;2023-04-01T00:09:49;12.60;99.90
26408;DHT22;14583;43.604;1.364;2023-04-01T00:12:15;12.40;99.90
26408;DHT22;14583;43.604;1.364;2023-04-01T00:14:41;12.40;99.90
26408;DHT22;14583;43.604;1.364;2023-04-01T00:17:06;12.40;99.90
26408;DHT22;14583;43.604;1.364;2023-04-01T00:19:32;12.40;99.90
26408;DHT22;14583;43.604;1.364;2023-04-01T00:21:58;12.40;99.90
26408;DHT22;14583;43.604;1.364;2023-04-01T00:24:24;12.20;99.90
26408;DHT22;14583;43.604;1.364;2023-04-01T00:26:50;12.20;99.90
26408;DHT22;14583;43.604;1.364;2023-04-01T00:29:16;12.20;99.90
26408;DHT22;14583;43.604;1.364;2023-04-01T00:31:41;12.20;99.90
26408;DHT22;14583;43.604;1.364;2023-04-01T00:34:07;12.10;99.90
26408;DHT22;14583;43.604;1.364;2023-04-01T00:36:33;12.20;99.90
26408;DHT22;14583;43.604;1.364;2023-04-01T00:38:58;12.20;99.90
26408;DHT22;14583;43.604;1.364;2023-04-01T00:41:25;12.20;99.90
26408;DHT22;14583;43.604;1.364;2023-04-01T00:43:52;12.10;99.90
26408;DHT22;14583;43.604;1.364;2023-04-01T00:46:18;12.30;99.90
26408;DHT22;14583;43.604;1.364;2023-04-01T00:48:48;12.30;99.90
26408;DHT22;14583;43.604;1.364;2023-04-01T00:51:18;12.20;99.90
26408;DHT22;14583;43.604;1.364;2023-04-01T00:53:49;12.20;99.90
26408;DHT22;14583;43.604;1.364;2023-04-01T00:56:26;12.20;99.90
26408;DHT22;14583;43.604;1.364;2023-04-01T00:59:05;12.10;99.90
26408;DHT22;14583;43.604;1.364;2023-04-01T01:01:34;12.00;99.90
26408;DHT22;14583;43.604;1.364;2023-04-01T01:04:01;11.90;99.90
26408;DHT22;14583;43.604;1.364;2023-04-01T01:11:57;11.90;99.90
26408;DHT22;14583;43.604;1.364;2023-04-01T01:27:39;11.80;99.90
26408;DHT22;14583;43.604;1.364;2023-04-01T01:35:53;11.70;99.90
26408;DHT22;14583;43.604;1.364;2023-04-01T01:38:27;11.70;99.90
26408;DHT22;14583;43.604;1.364;2023-04-01T01:40:55;11.90;99.90
26408;DHT22;14583;43.604;1.364;2023-04-01T01:43:26;11.70;99.90
26408;DHT22;14583;43.604;1.364;2023-04-01T01:45:58;11.70;99.90
26408;DHT22;14583;43.604;1.364;2023-04-01T01:48:26;11.80;99.90
26408;DHT22;14583;43.604;1.364;2023-04-01T01:50:53;11.80;99.90
26408;DHT22;14583;43.604;1.364;2023-04-01T01:53:19;11.60;99.90
26408;DHT22;14583;43.604;1.364;2023-04-01T01:55:46;11.50;99.90
26408;DHT22;14583;43.604;1.364;2023-04-01T01:58:25;11.80;99.90
26408;DHT22;14583;43.604;1.364;2023-04-01T02:01:13;11.70;99.90
26408;DHT22;14583;43.604;1.364;2023-04-01T02:03:42;11.80;99.90
26408;DHT22;14583;43.604;1.364;2023-04-01T02:06:11;11.90;99.90
26408;DHT22;14583;43.604;1.364;2023-04-01T02:08:54;12.00;99.90
26408;DHT22;14583;43.604;1.364;2023-04-01T02:11:27;12.00;99.90
26408;DHT22;14583;43.604;1.364;2023-04-01T02:14:02;11.90;99.90
26408;DHT22;14583;43.604;1.364;2023-04-01T02:16:32;11.90;99.90
26408;DHT22;14583;43.604;1.364;2023-04-01T02:19:01;11.80;99.90
26408;DHT22;14583;43.604;1.364;2023-04-01T02:21:30;11.70;99.90
26408;DHT22;14583;43.604;1.364;2023-04-01T02:23:58;11.80;99.90
26408;DHT22;14583;43.604;1.364;2023-04-01T02:26:25;11.60;99.90
26408;DHT22;14583;43.604;1.364;2023-04-01T02:28:53;11.70;99.90
26408;DHT22;14583;43.604;1.364;2023-04-01T02:31:20;11.60;99.90
26408;DHT22;14583;43.604;1.364;2023-04-01T02:33:47;11.70;99.90
26408;DHT22;14583;43.604;1.364;2023-04-01T02:36:14;11.60;99.90
26408;DHT22;14583;43.604;1.364;2023-04-01T02:38:42;11.70;99.90
26408;DHT22;14583;43.604;1.364;2023-04-01T02:41:08;11.60;99.90
26408;DHT22;14583;43.604;1.364;2023-04-01T02:43:34;11.70;99.90
26408;DHT22;14583;43.604;1.364;2023-04-01T02:45:59;11.50;99.90
26408;DHT22;14583;43.604;1.364;2023-04-01T02:48:26;11.50;99.90
26408;DHT22;14583;43.604;1.364;2023-04-01T02:50:52;11.50;99.90
26408;DHT22;14583;43.604;1.364;2023-04-01T02:53:17;11.40;99.90
26408;DHT22;14583;43.604;1.364;2023-04-01T02:55:43;11.50;99.90
26408;DHT22;14583;43.604;1.364;2023-04-01T02:58:10;11.60;99.90
26408;DHT22;14583;43.604;1.364;2023-04-01T03:00:36;11.60;99.90
26408;DHT22;14583;43.604;1.364;2023-04-01T03:03:01;11.50;99.90
26408;DHT22;14583;43.604;1.364;2023-04-01T03:05:28;11.50;99.90
26408;DHT22;14583;43.604;1.364;2023-04-01T03:07:53;11.50;99.90
26408;DHT22;14583;43.604;1.364;2023-04-01T03:10:19;11.70;99.90
26408;DHT22;14583;43.604;1.364;2023-04-01T03:12:45;11.70;99.90
26408;DHT22;14583;43.604;1.364;2023-04-01T03:15:12;11.70;99.90
26408;DHT22;14583;43.604;1.364;2023-04-01T03:17:40;11.60;99.90
26408;DHT22;14583;43.604;1.364;2023-04-01T03:20:07;11.50;99.90
26408;DHT22;14583;43.604;1.364;2023-04-01T03:22:34;11.40;99.90
26408;DHT22;14583;43.604;1.364;2023-04-01T03:25:03;11.40;99.90
26408;DHT22;14583;43.604;1.364;2023-04-01T03:27:29;11.30;99.90
26408;DHT22;14583;43.604;1.364;2023-04-01T03:29:54;11.30;99.90
26408;DHT22;14583;43.604;1.364;2023-04-01T03:32:20;11.30;99.90
26408;DHT22;14583;43.604;1.364;2023-04-01T03:34:46;11.30;99.90
26408;DHT22;14583;43.604;1.364;2023-04-01T03:37:11;11.40;99.90
26408;DHT22;14583;43.604;1.364;2023-04-01T03:39:37;11.50;99.90
26408;DHT22;14583;43.604;1.364;2023-04-01T03:42:03;11.30;99.90
26408;DHT22;14583;43.604;1.364;2023-04-01T03:44:32;11.30;99.90
26408;DHT22;14583;43.604;1.364;2023-04-01T03:46:58;11.30;99.90
26408;DHT22;14583;43.604;1.364;2023-04-01T03:49:24;11.20;99.90
26408;DHT22;14583;43.604;1.364;2023-04-01T03:51:50;11.40;99.90
26408;DHT22;14583;43.604;1.364;2023-04-01T03:54:16;11.30;99.90
26408;DHT22;14583;43.604;1.364;2023-04-01T03:56:42;11.30;99.90
26408;DHT22;14583;43.604;1.364;2023-04-01T03:59:08;11.30;99.90
26408;DHT22;14583;43.604;1.364;2023-04-01T04:01:34;11.30;99.90
26408;DHT22;14583;43.604;1.364;2023-04-01T04:04:00;11.40;99.90
26408;DHT22;14583;43.604;1.364;2023-04-01T04:06:26;11.30;99.90
26408;DHT22;14583;43.604;1.364;2023-04-01T04:08:53;11.20;99.90
26408;DHT22;14583;43.604;1.364;2023-04-01T04:11:19;11.30;99.90
26408;DHT22;14583;43.604;1.364;2023-04-01T04:13:45;11.40;99.90
26408;DHT22;14583;43.604;1.364;2023-04-01T04:16:13;11.30;99.90
26408;DHT22;14583;43.604;1.364;2023-04-01T04:18:39;11.30;99.90
26408;DHT22;14583;43.604;1.364;2023-04-01T04:21:05;11.40;99.90
26408;DHT22;14583;43.604;1.364;2023-04-01T04:23:31;11.30;99.90
26408;DHT22;14583;43.604;1.364;2023-04-01T04:26:06;11.40;99.90
26408;DHT22;14583;43.604;1.364;2023-04-01T04:28:32;11.40;99.90
26408;DHT22;14583;43.604;1.364;2023-04-01T04:30:59;11.30;99.90
26408;DHT22;14583;43.604;1.364;2023-04-01T04:33:25;11.30;99.90
26408;DHT22;14583;43.604;1.364;2023-04-01T04:35:51;11.40;99.90
26408;DHT22;14583;43.604;1.364;2023-04-01T04:38:17;11.30;99.90
26408;DHT22;14583;43.604;1.364;2023-04-01T04:40:44;11.30;99.90
26408;DHT22;14583;43.604;1.364;2023-04-01T04:43:12;11.40;99.90
26408;DHT22;14583;43.604;1.364;2023-04-01T04:45:38;11.20;99.90
26408;DHT22;14583;43.604;1.364;2023-04-01T04:48:03;11.30;99.90
26408;DHT22;14583;43.604;1.364;2023-04-01T04:50:29;11.30;99.90
26408;DHT22;14583;43.604;1.364;2023-04-01T04:52:55;11.30;99.90
26408;DHT22;14583;43.604;1.364;2023-04-01T04:55:21;11.30;99.90
26408;DHT22;14583;43.604;1.364;2023-04-01T04:57:47;11.30;99.90
26408;DHT22;14583;43.604;1.364;2023-04-01T05:00:13;11.30;99.90
26408;DHT22;14583;43.604;1.364;2023-04-01T05:02:38;11.30;99.90
26408;DHT22;14583;43.604;1.364;2023-04-01T05:05:05;11.40;99.90
26408;DHT22;14583;43.604;1.364;2023-04-01T05:07:30;11.50;99.90
26408;DHT22;14583;43.604;1.364;2023-04-01T05:09:56;11.40;99.90
26408;DHT22;14583;43.604;1.364;2023-04-01T05:12:22;11.30;99.90
26408;DHT22;14583;43.604;1.364;2023-04-01T05:14:47;11.40;99.90
26408;DHT22;14583;43.604;1.364;2023-04-01T05:17:13;11.20;99.90
26408;DHT22;14583;43.604;1.364;2023-04-01T05:19:39;11.30;99.90
26408;DHT22;14583;43.604;1.364;2023-04-01T05:22:06;11.40;99.90
26408;DHT22;14583;43.604;1.364;2023-04-01T05:24:32;11.30;99.90
26408;DHT22;14583;43.604;1.364;2023-04-01T05:26:58;11.30;99.90
26408;DHT22;14583;43.604;1.364;2023-04-01T05:29:25;11.30;99.90
26408;DHT22;14583;43.604;1.364;2023-04-01T05:31:50;11.20;99.90
26408;DHT22;14583;43.604;1.364;2023-04-01T05:34:16;11.20;99.90
26408;DHT22;14583;43.604;1.364;2023-04-01T05:36:43;11.30;99.90
26408;DHT22;14583;43.604;1.364;2023-04-01T05:39:09;11.30;99.90
26408;DHT22;14583;43.604;1.364;2023-04-01T05:41:38;11.20;99.90
26408;DHT22;14583;43.604;1.364;2023-04-01T05:44:04;11.40;99.90
26408;DHT22;14583;43.604;1.364;2023-04-01T05:46:31;11.30;99.90
26408;DHT22;14583;43.604;1.364;2023-04-01T05:48:57;11.20;99.90
26408;DHT22;14583;43.604;1.364;2023-04-01T05:51:25;11.30;99.90
26408;DHT22;14583;43.604;1.364;2023-04-01T05:53:51;11.20;99.90
26408;DHT22;14583;43.604;1.364;2023-04-01T05:56:17;11.30;99.90
26408;DHT22;14583;43.604;1.364;2023-04-01T05:58:42;11.20;99.90
26408;DHT22;14583;43.604;1.364;2023-04-01T06:01:11;11.30;99.90
26408;DHT22;14583;43.604;1.364;2023-04-01T06:03:37;11.40;99.90
26408;DHT22;14583;43.604;1.364;2023-04-01T06:06:03;11.30;99.90
26408;DHT22;14583;43.604;1.364;2023-04-01T06:08:31;11.30;99.90
26408;DHT22;14583;43.604;1.364;2023-04-01T06:14:20;11.30;99.90
26408;DHT22;14583;43.604;1.364;2023-04-01T06:35:49;11.50;99.90
26408;DHT22;14583;43.604;1.364;2023-04-01T06:49:24;11.50;99.90
26408;DHT22;14583;43.604;1.364;2023-04-01T06:54:47;11.70;99.90
26408;DHT22;14583;43.604;1.364;2023-04-01T06:59:49;11.80;99.90
26408;DHT22;14583;43.604;1.364;2023-04-01T07:02:32;12.00;99.90
26408;DHT22;14583;43.604;1.364;2023-04-01T07:04:59;11.90;99.90
26408;DHT22;14583;43.604;1.364;2023-04-01T07:07:44;11.80;99.90
26408;DHT22;14583;43.604;1.364;2023-04-01T07:10:19;11.80;99.90
26408;DHT22;14583;43.604;1.364;2023-04-01T07:12:53;12.00;99.90
26408;DHT22;14583;43.604;1.364;2023-04-01T07:15:30;12.00;99.90
26408;DHT22;14583;43.604;1.364;2023-04-01T07:18:21;12.10;99.90
26408;DHT22;14583;43.604;1.364;2023-04-01T07:20:49;12.20;99.90
26408;DHT22;14583;43.604;1.364;2023-04-01T07:23:22;12.20;99.90
26408;DHT22;14583;43.604;1.364;2023-04-01T07:25:53;12.20;99.90
26408;DHT22;14583;43.604;1.364;2023-04-01T07:28:20;12.20;99.90
26408;DHT22;14583;43.604;1.364;2023-04-01T07:31:04;12.20;99.90
26408;DHT22;14583;43.604;1.364;2023-04-01T07:36:39;12.10;99.90
26408;DHT22;14583;43.604;1.364;2023-04-01T07:55:16;12.60;99.90
26408;DHT22;14583;43.604;1.364;2023-04-01T08:11:25;12.80;99.90
26408;DHT22;14583;43.604;1.364;2023-04-01T08:14:20;12.90;99.90
26408;DHT22;14583;43.604;1.364;2023-04-01T08:22:12;13.20;99.90
26408;DHT22;14583;43.604;1.364;2023-04-01T08:24:42;13.20;99.90
26408;DHT22;14583;43.604;1.364;2023-04-01T08:27:21;13.30;99.90
26408;DHT22;14583;43.604;1.364;2023-04-01T08:29:54;13.30;99.90
26408;DHT22;14583;43.604;1.364;2023-04-01T08:32:37;13.30;99.90
26408;DHT22;14583;43.604;1.364;2023-04-01T08:35:08;13.30;99.90
26408;DHT22;14583;43.604;1.364;2023-04-01T08:37:38;13.40;99.90
26408;DHT22;14583;43.604;1.364;2023-04-01T08:55:22;13.90;99.90
26408;DHT22;14583;43.604;1.364;2023-04-01T09:00:32;13.90;99.90
26408;DHT22;14583;43.604;1.364;2023-04-01T09:17:59;14.40;99.90
26408;DHT22;14583;43.604;1.364;2023-04-01T09:23:48;14.10;99.90
26408;DHT22;14583;43.604;1.364;2023-04-01T09:29:30;14.00;99.90
26408;DHT22;14583;43.604;1.364;2023-04-01T09:38:12;13.90;99.90
26408;DHT22;14583;43.604;1.364;2023-04-01T09:46:14;14.10;99.90
26408;DHT22;14583;43.604;1.364;2023-04-01T10:00:03;14.00;99.90
26408;DHT22;14583;43.604;1.364;2023-04-01T10:14:10;14.60;99.60
26408;DHT22;14583;43.604;1.364;2023-04-01T10:19:52;15.00;98.80
26408;DHT22;14583;43.604;1.364;2023-04-01T10:22:38;14.90;98.30
26408;DHT22;14583;43.604;1.364;2023-04-01T10:33:38;14.70;98.90
26408;DHT22;14583;43.604;1.364;2023-04-01T10:44:11;15.10;97.50
26408;DHT22;14583;43.604;1.364;2023-04-01T10:49:46;15.20;97.70
26408;DHT22;14583;43.604;1.364;2023-04-01T11:37:05;13.10;99.90
26408;DHT22;14583;43.604;1.364;2023-04-01T11:40:05;13.10;99.90
26408;DHT22;14583;43.604;1.364;2023-04-01T11:43:13;13.10;99.90
26408;DHT22;14583;43.604;1.364;2023-04-01T11:45:51;13.30;99.90
26408;DHT22;14583;43.604;1.364;2023-04-01T11:58:56;13.70;99.90
26408;DHT22;14583;43.604;1.364;2023-04-01T12:04:41;14.00;99.90
26408;DHT22;14583;43.604;1.364;2023-04-01T12:10:39;13.80;99.90
26408;DHT22;14583;43.604;1.364;2023-04-01T12:13:22;13.80;99.90
26408;DHT22;14583;43.604;1.364;2023-04-01T12:19:17;13.80;99.90
26408;DHT22;14583;43.604;1.364;2023-04-01T12:22:18;13.90;99.90
26408;DHT22;14583;43.604;1.364;2023-04-01T12:27:53;14.10;99.90
26408;DHT22;14583;43.604;1.364;2023-04-01T12:30:34;13.90;99.90
26408;DHT22;14583;43.604;1.364;2023-04-01T12:33:37;13.60;99.90
26408;DHT22;14583;43.604;1.364;2023-04-01T12:36:13;13.70;99.90
26408;DHT22;14583;43.604;1.364;2023-04-01T12:42:04;13.40;99.90
26408;DHT22;14583;43.604;1.364;2023-04-01T12:50:19;13.30;99.90
26408;DHT22;14583;43.604;1.364;2023-04-01T12:55:41;12.80;99.90
26408;DHT22;14583;43.604;1.364;2023-04-01T13:04:39;13.00;99.90
26408;DHT22;14583;43.604;1.364;2023-04-01T13:26:04;12.20;99.90
26408;DHT22;14583;43.604;1.364;2023-04-01T13:42:51;12.70;99.90
26408;DHT22;14583;43.604;1.364;2023-04-01T13:45:26;12.50;99.90
26408;DHT22;14583;43.604;1.364;2023-04-01T13:50:51;12.30;99.90
26408;DHT22;14583;43.604;1.364;2023-04-01T14:06:40;11.50;99.90
26408;DHT22;14583;43.604;1.364;2023-04-01T14:09:19;11.60;99.90
26408;DHT22;14583;43.604;1.364;2023-04-01T14:15:23;11.60;99.90
26408;DHT22;14583;43.604;1.364;2023-04-01T14:23:12;11.40;99.90
26408;DHT22;14583;43.604;1.364;2023-04-01T14:34:19;11.40;99.90
26408;DHT22;14583;43.604;1.364;2023-04-01T14:40:06;11.40;99.90
26408;DHT22;14583;43.604;1.364;2023-04-01T14:43:01;11.40;99.90
26408;DHT22;14583;43.604;1.364;2023-04-01T14:46:09;11.60;99.90
26408;DHT22;14583;43.604;1.364;2023-04-01T14:49:00;11.40;99.90
26408;DHT22;14583;43.604;1.364;2023-04-01T14:59:13;11.30;99.90
26408;DHT22;14583;43.604;1.364;2023-04-01T15:07:03;10.40;99.90
26408;DHT22;14583;43.604;1.364;2023-04-01T15:21:04;10.40;99.90
26408;DHT22;14583;43.604;1.364;2023-04-01T15:23:45;10.20;99.90
26408;DHT22;14583;43.604;1.364;2023-04-01T15:32:17;11.50;99.90
26408;DHT22;14583;43.604;1.364;2023-04-01T15:35:03;11.50;99.90
26408;DHT22;14583;43.604;1.364;2023-04-01T15:37:47;11.00;99.90
26408;DHT22;14583;43.604;1.364;2023-04-01T15:59:49;24.50;88.50
26408;DHT22;14583;43.604;1.364;2023-04-01T16:02:47;22.00;91.40
26408;DHT22;14583;43.604;1.364;2023-04-01T16:11:34;16.10;96.10
26408;DHT22;14583;43.604;1.364;2023-04-01T16:22:38;14.50;99.90
26408;DHT22;14583;43.604;1.364;2023-04-01T16:25:44;20.00;96.40
26408;DHT22;14583;43.604;1.364;2023-04-01T16:28:32;19.40;94.50
26408;DHT22;14583;43.604;1.364;2023-04-01T16:31:16;22.00;92.80
26408;DHT22;14583;43.604;1.364;2023-04-01T16:33:57;17.90;93.60
26408;DHT22;14583;43.604;1.364;2023-04-01T16:36:44;14.10;98.50
26408;DHT22;14583;43.604;1.364;2023-04-01T16:44:50;11.60;99.90
26408;DHT22;14583;43.604;1.364;2023-04-01T16:47:30;11.30;99.90
26408;DHT22;14583;43.604;1.364;2023-04-01T16:50:05;11.10;99.90
26408;DHT22;14583;43.604;1.364;2023-04-01T16:58:18;11.20;99.90
26408;DHT22;14583;43.604;1.364;2023-04-01T17:01:16;11.30;99.90
26408;DHT22;14583;43.604;1.364;2023-04-01T17:03:47;11.00;99.90
26408;DHT22;14583;43.604;1.364;2023-04-01T17:32:46;10.90;99.90
26408;DHT22;14583;43.604;1.364;2023-04-01T17:35:32;10.90;99.90
26408;DHT22;14583;43.604;1.364;2023-04-01T17:38:13;10.70;99.90
26408;DHT22;14583;43.604;1.364;2023-04-01T17:46:52;10.30;99.90
26408;DHT22;14583;43.604;1.364;2023-04-01T18:05:30;9.60;99.90
26408;DHT22;14583;43.604;1.364;2023-04-01T18:21:55;9.10;99.90
26408;DHT22;14583;43.604;1.364;2023-04-01T18:24:32;9.10;99.90
26408;DHT22;14583;43.604;1.364;2023-04-01T18:27:06;9.10;99.90
26408;DHT22;14583;43.604;1.364;2023-04-01T18:29:38;9.10;99.90
26408;DHT22;14583;43.604;1.364;2023-04-01T18:32:34;9.00;99.90
26408;DHT22;14583;43.604;1.364;2023-04-01T18:40:38;8.90;99.90
26408;DHT22;14583;43.604;1.364;2023-04-01T18:49:20;8.90;99.90
26408;DHT22;14583;43.604;1.364;2023-04-01T18:51:54;9.20;99.90
26408;DHT22;14583;43.604;1.364;2023-04-01T18:54:33;9.20;99.90
26408;DHT22;14583;43.604;1.364;2023-04-01T18:57:14;9.20;99.90
26408;DHT22;14583;43.604;1.364;2023-04-01T18:59:46;9.00;99.90
26408;DHT22;14583;43.604;1.364;2023-04-01T19:02:38;9.20;99.90
26408;DHT22;14583;43.604;1.364;2023-04-01T19:05:13;8.90;99.90
26408;DHT22;14583;43.604;1.364;2023-04-01T19:07:55;9.00;99.90
26408;DHT22;14583;43.604;1.364;2023-04-01T19:10:41;9.00;99.90
26408;DHT22;14583;43.604;1.364;2023-04-01T19:21:28;9.10;99.90
26408;DHT22;14583;43.604;1.364;2023-04-01T19:27:28;8.80;99.90
26408;DHT22;14583;43.604;1.364;2023-04-01T19:35:33;8.80;99.90
26408;DHT22;14583;43.604;1.364;2023-04-01T19:41:12;8.80;99.90
26408;DHT22;14583;43.604;1.364;2023-04-01T19:43:57;9.00;99.90
26408;DHT22;14583;43.604;1.364;2023-04-01T19:46:44;9.10;99.90
26408;DHT22;14583;43.604;1.364;2023-04-01T19:51:51;9.10;99.90
26408;DHT22;14583;43.604;1.364;2023-04-01T19:56:58;8.90;99.90
26408;DHT22;14583;43.604;1.364;2023-04-01T19:59:34;8.80;99.90
26408;DHT22;14583;43.604;1.364;2023-04-01T20:04:47;8.80;99.90
26408;DHT22;14583;43.604;1.364;2023-04-01T20:07:24;8.80;99.90
26408;DHT22;14583;43.604;1.364;2023-04-01T20:10:16;8.70;99.90
26408;DHT22;14583;43.604;1.364;2023-04-01T20:13:00;8.60;99.90
26408;DHT22;14583;43.604;1.364;2023-04-01T20:15:34;8.70;99.90
26408;DHT22;14583;43.604;1.364;2023-04-01T20:18:03;9.00;99.90
26408;DHT22;14583;43.604;1.364;2023-04-01T20:20:30;9.10;99.90
26408;DHT22;14583;43.604;1.364;2023-04-01T20:23:23;9.00;99.90
26408;DHT22;14583;43.604;1.364;2023-04-01T20:26:08;9.10;99.90
26408;DHT22;14583;43.604;1.364;2023-04-01T20:28:44;9.10;99.90
26408;DHT22;14583;43.604;1.364;2023-04-01T20:31:34;9.00;99.90
26408;DHT22;14583;43.604;1.364;2023-04-01T20:34:33;9.00;99.90
26408;DHT22;14583;43.604;1.364;2023-04-01T20:49:05;8.70;99.90
26408;DHT22;14583;43.604;1.364;2023-04-01T20:51:37;8.80;99.90
26408;DHT22;14583;43.604;1.364;2023-04-01T20:56:53;8.70;99.90
26408;DHT22;14583;43.604;1.364;2023-04-01T20:59:45;8.70;99.90
26408;DHT22;14583;43.604;1.364;2023-04-01T21:21:13;8.70;99.90
26408;DHT22;14583;43.604;1.364;2023-04-01T21:24:00;8.60;99.90
26408;DHT22;14583;43.604;1.364;2023-04-01T21:26:30;8.60;99.90
26408;DHT22;14583;43.604;1.364;2023-04-01T21:32:05;8.60;99.90
26408;DHT22;14583;43.604;1.364;2023-04-01T21:42:44;8.50;99.90
26408;DHT22;14583;43.604;1.364;2023-04-01T21:59:29;8.50;99.90
26408;DHT22;14583;43.604;1.364;2023-04-01T22:02:22;8.50;99.90
26408;DHT22;14583;43.604;1.364;2023-04-01T22:07:28;8.30;99.90
26408;DHT22;14583;43.604;1.364;2023-04-01T22:10:19;8.40;99.90
26408;DHT22;14583;43.604;1.364;2023-04-01T22:12:56;8.30;99.90
26408;DHT22;14583;43.604;1.364;2023-04-01T22:18:54;8.40;99.90
26408;DHT22;14583;43.604;1.364;2023-04-01T22:24:32;8.40;99.90
26408;DHT22;14583;43.604;1.364;2023-04-01T22:27:46;8.50;99.90
26408;DHT22;14583;43.604;1.364;2023-04-01T22:32:47;8.70;99.90
26408;DHT22;14583;43.604;1.364;2023-04-01T22:35:23;8.80;99.90
26408;DHT22;14583;43.604;1.364;2023-04-01T22:40:55;8.70;99.90
26408;DHT22;14583;43.604;1.364;2023-04-01T22:43:37;8.70;99.90
26408;DHT22;14583;43.604;1.364;2023-04-01T22:49:21;8.40;99.90
26408;DHT22;14583;43.604;1.364;2023-04-01T22:55:00;8.40;99.90
26408;DHT22;14583;43.604;1.364;2023-04-01T22:57:44;8.60;99.90
26408;DHT22;14583;43.604;1.364;2023-04-01T23:05:46;8.70;99.90
26408;DHT22;14583;43.604;1.364;2023-04-01T23:11:02;8.70;99.90
26408;DHT22;14583;43.604;1.364;2023-04-01T23:13:34;8.60;99.90
26408;DHT22;14583;43.604;1.364;2023-04-01T23:16:03;8.60;99.90
26408;DHT22;14583;43.604;1.364;2023-04-01T23:18:33;8.60;99.90
26408;DHT22;14583;43.604;1.364;2023-04-01T23:28:55;8.70;99.90
26408;DHT22;14583;43.604;1.364;2023-04-01T23:31:31;8.60;99.90
26408;DHT22;14583;43.604;1.364;2023-04-01T23:34:21;8.50;99.90
26408;DHT22;14583;43.604;1.364;2023-04-01T23:36:50;8.40;99.90
26408;DHT22;14583;43.604;1.364;2023-04-01T23:39:34;8.40;99.90
26408;DHT22;14583;43.604;1.364;2023-04-01T23:42:25;8.40;99.90
26408;DHT22;14583;43.604;1.364;2023-04-01T23:44:56;8.40;99.90
26408;DHT22;14583;43.604;1.364;2023-04-01T23:47:34;8.40;99.90
26408;DHT22;14583;43.604;1.364;2023-04-01T23:50:24;8.60;99.90
26408;DHT22;14583;43.604;1.364;2023-04-01T23:53:11;8.60;99.90
26408;DHT22;14583;43.604;1.364;2023-04-01T23:55:40;8.50;99.90
26408;DHT22;14583;43.604;1.364;2023-04-01T23:58:16;8.60;99.90
